createdAt,value
2019-05-07T00:01:16.555Z,7.80
2019-05-07T00:03:50.276Z,7.80
2019-05-07T00:06:23.892Z,7.80
2019-05-07T00:08:57.658Z,7.80
2019-05-07T00:11:33.101Z,7.80
2019-05-07T00:14:06.082Z,7.80
2019-05-07T00:16:42.035Z,7.80
2019-05-07T00:19:13.657Z,7.80
2019-05-07T00:21:47.455Z,7.70
2019-05-07T00:24:22.316Z,7.60
2019-05-07T00:26:54.756Z,7.50
2019-05-07T00:29:28.542Z,7.40
2019-05-07T00:32:02.899Z,7.40
2019-05-07T00:34:35.955Z,7.40
2019-05-07T00:37:13.240Z,7.30
2019-05-07T00:40:04.728Z,7.30
2019-05-07T00:42:44.093Z,7.20
2019-05-07T00:45:20.756Z,7.10
2019-05-07T00:47:52.100Z,7.10
2019-05-07T00:50:25.398Z,7.10
2019-05-07T00:52:59.076Z,7.10
2019-05-07T00:55:32.909Z,7.10
2019-05-07T00:58:06.455Z,7.10
2019-05-07T01:00:42.086Z,7.10
2019-05-07T01:03:13.801Z,7.20
2019-05-07T01:05:47.435Z,7.30
2019-05-07T01:08:22.504Z,7.20
2019-05-07T01:10:54.637Z,7.10
2019-05-07T01:13:28.376Z,7.00
2019-05-07T01:16:02.493Z,6.90
2019-05-07T01:18:35.706Z,6.80
2019-05-07T01:21:09.399Z,6.70
2019-05-07T01:23:43.719Z,6.70
2019-05-07T01:26:17.280Z,6.70
2019-05-07T01:28:56.704Z,6.70
2019-05-07T01:31:32.744Z,6.70
2019-05-07T01:34:20.435Z,6.70
2019-05-07T01:36:54.970Z,6.50
2019-05-07T01:39:28.776Z,6.50
2019-05-07T01:42:02.541Z,6.50
2019-05-07T01:44:36.138Z,6.50
2019-05-07T01:47:09.817Z,6.60
2019-05-07T01:49:43.547Z,6.60
2019-05-07T01:52:17.083Z,6.70
2019-05-07T01:54:52.221Z,6.70
2019-05-07T01:57:24.124Z,6.70
2019-05-07T01:59:57.679Z,6.60
2019-05-07T02:02:48.199Z,6.50
2019-05-07T02:18:47.667Z,6.30
2019-05-07T02:21:22.063Z,6.20
2019-05-07T02:23:54.714Z,6.00
2019-05-07T02:26:28.289Z,6.10
2019-05-07T02:29:02.792Z,6.00
2019-05-07T02:31:36.593Z,6.00
2019-05-07T02:34:13.823Z,6.10
2019-05-07T02:36:44.917Z,6.10
2019-05-07T02:39:23.801Z,6.00
2019-05-07T02:41:54.425Z,6.00
2019-05-07T02:44:27.927Z,5.90
2019-05-07T02:47:05.106Z,5.70
2019-05-07T02:49:43.940Z,5.70
2019-05-07T02:52:17.815Z,5.70
2019-05-07T02:54:54.901Z,5.70
2019-05-07T02:57:28.552Z,5.70
2019-05-07T03:00:04.497Z,5.70
2019-05-07T03:02:35.816Z,5.70
2019-05-07T03:05:09.529Z,5.70
2019-05-07T03:07:43.128Z,5.70
2019-05-07T03:10:16.723Z,5.70
2019-05-07T03:12:53.635Z,5.80
2019-05-07T03:15:25.489Z,5.80
2019-05-07T03:17:59.162Z,5.80
2019-05-07T03:20:53.273Z,5.70
2019-05-07T03:23:43.071Z,5.70
2019-05-07T03:26:23.072Z,5.70
2019-05-07T03:28:56.883Z,5.60
2019-05-07T03:31:36.864Z,5.60
2019-05-07T03:34:09.911Z,5.70
2019-05-07T03:36:47.655Z,5.70
2019-05-07T03:39:17.428Z,5.60
2019-05-07T03:41:53.093Z,5.70
2019-05-07T03:44:33.608Z,5.90
2019-05-07T03:47:13.482Z,5.80
2019-05-07T03:49:44.321Z,5.80
2019-05-07T03:52:17.921Z,5.80
2019-05-07T03:54:54.121Z,5.90
2019-05-07T03:57:26.049Z,6.10
2019-05-07T03:59:59.868Z,6.10
2019-05-07T04:02:33.620Z,6.10
2019-05-07T04:05:07.212Z,6.20
2019-05-07T04:07:43.044Z,6.20
2019-05-07T04:10:15.392Z,6.20
2019-05-07T04:12:48.208Z,6.20
2019-05-07T04:15:23.316Z,6.20
2019-05-07T04:17:55.556Z,6.20
2019-05-07T04:20:33.058Z,6.30
2019-05-07T04:23:04.449Z,6.30
2019-05-07T04:25:52.958Z,6.30
2019-05-07T04:28:25.751Z,6.30
2019-05-07T04:31:02.538Z,6.40
2019-05-07T04:33:33.803Z,6.50
2019-05-07T04:36:07.540Z,6.50
2019-05-07T04:38:43.771Z,6.60
2019-05-07T04:41:14.757Z,6.60
2019-05-07T04:43:48.581Z,6.70
2019-05-07T04:46:23.626Z,6.70
2019-05-07T04:48:56.019Z,6.80
2019-05-07T04:51:33.394Z,6.70
2019-05-07T04:54:04.171Z,6.70
2019-05-07T04:56:37.832Z,6.70
2019-05-07T04:59:13.226Z,6.80
2019-05-07T05:01:45.699Z,6.90
2019-05-07T05:04:28.968Z,7.10
2019-05-07T05:06:54.843Z,7.10
2019-05-07T05:09:28.739Z,7.10
2019-05-07T05:12:02.956Z,7.10
2019-05-07T05:14:36.502Z,7.10
2019-05-07T05:17:12.875Z,7.10
2019-05-07T05:19:45.284Z,7.10
2019-05-07T05:22:39.403Z,7.20
2019-05-07T05:25:14.061Z,7.20
2019-05-07T05:27:47.781Z,7.40
2019-05-07T05:30:36.510Z,7.40
2019-05-07T05:33:12.522Z,7.50
2019-05-07T05:35:44.639Z,7.60
2019-05-07T05:38:19.101Z,7.50
2019-05-07T05:40:52.798Z,7.50
2019-05-07T05:43:31.926Z,7.50
2019-05-07T05:46:04.054Z,7.50
2019-05-07T05:48:37.959Z,7.80
2019-05-07T05:51:32.515Z,7.80
2019-05-07T05:54:09.660Z,7.90
2019-05-07T05:56:45.356Z,7.70
2019-05-07T05:59:27.789Z,7.90
2019-05-07T06:01:57.259Z,8.30
2019-05-07T06:04:32.879Z,8.50
2019-05-07T06:07:14.437Z,8.80
2019-05-07T06:10:02.500Z,9.10
2019-05-07T06:12:45.155Z,9.60
2019-05-07T06:15:22.766Z,9.60
2019-05-07T06:18:17.700Z,9.80
2019-05-07T06:20:38.354Z,10.20
2019-05-07T06:23:17.576Z,10.20
2019-05-07T06:25:52.326Z,10.30
2019-05-07T06:28:25.672Z,10.30
2019-05-07T06:31:02.156Z,10.30
2019-05-07T06:33:34.536Z,10.30
2019-05-07T06:36:08.310Z,10.30
2019-05-07T06:38:54.673Z,10.30
2019-05-07T06:41:43.126Z,10.40
2019-05-07T06:44:17.598Z,10.60
2019-05-07T06:46:52.615Z,10.60
2019-05-07T06:49:24.894Z,10.70
2019-05-07T06:51:58.596Z,10.60
2019-05-07T06:54:32.275Z,10.60
2019-05-07T06:57:05.801Z,10.70
2019-05-07T06:59:42.387Z,10.80
2019-05-07T07:02:23.627Z,11.00
2019-05-07T07:04:59.136Z,11.00
2019-05-07T07:07:37.119Z,11.10
2019-05-07T07:10:13.885Z,11.20
2019-05-07T07:12:47.596Z,11.30
2019-05-07T07:15:23.204Z,11.30
2019-05-07T07:17:55.608Z,11.20
2019-05-07T07:20:29.193Z,11.40
2019-05-07T07:23:02.831Z,11.50
2019-05-07T07:25:37.583Z,11.70
2019-05-07T07:28:12.326Z,11.70
2019-05-07T07:30:47.329Z,11.80
2019-05-07T07:33:22.455Z,11.70
2019-05-07T07:35:54.723Z,11.50
2019-05-07T07:38:32.975Z,11.60
2019-05-07T07:41:06.122Z,11.40
2019-05-07T07:43:41.928Z,11.60
2019-05-07T07:46:16.541Z,11.60
2019-05-07T07:49:03.287Z,11.80
2019-05-07T07:51:36.699Z,12.10
2019-05-07T07:53:56.488Z,12.50
2019-05-07T07:56:48.809Z,12.40
2019-05-07T07:59:09.802Z,12.30
2019-05-07T08:01:44.089Z,12.30
2019-05-07T08:04:17.698Z,12.30
2019-05-07T08:06:57.055Z,12.20
2019-05-07T08:09:32.432Z,12.40
2019-05-07T08:12:04.425Z,12.80
2019-05-07T08:14:37.853Z,13.20
2019-05-07T08:17:13.070Z,13.30
2019-05-07T08:19:45.167Z,13.50
2019-05-07T08:22:18.861Z,13.90
2019-05-07T08:24:52.636Z,14.70
2019-05-07T08:27:26.206Z,15.60
2019-05-07T08:29:59.774Z,16.40
2019-05-07T08:32:34.962Z,17.00
2019-05-07T08:35:28.548Z,16.90
2019-05-07T08:38:02.379Z,15.80
2019-05-07T08:40:36.628Z,14.40
2019-05-07T08:43:12.556Z,14.00
2019-05-07T08:45:52.454Z,14.00
2019-05-07T08:48:24.281Z,13.60
2019-05-07T08:50:58.142Z,13.40
2019-05-07T08:53:32.804Z,13.30
2019-05-07T08:56:05.466Z,12.90
2019-05-07T08:58:39.152Z,12.50
2019-05-07T09:01:12.796Z,12.50
2019-05-07T09:03:47.387Z,12.70
2019-05-07T09:06:22.062Z,12.60
2019-05-07T09:08:54.770Z,12.70
2019-05-07T09:11:28.472Z,12.80
2019-05-07T09:14:02.162Z,12.90
2019-05-07T09:16:35.987Z,12.80
2019-05-07T09:19:09.641Z,12.90
2019-05-07T09:21:43.216Z,13.00
2019-05-07T09:24:17.755Z,13.20
2019-05-07T09:26:52.785Z,13.30
2019-05-07T09:29:29.172Z,13.30
2019-05-07T09:32:09.125Z,13.50
2019-05-07T09:34:47.658Z,13.50
2019-05-07T09:37:22.860Z,13.40
2019-05-07T09:39:57.339Z,13.20
2019-05-07T09:42:33.144Z,13.10
2019-05-07T09:45:04.818Z,13.00
2019-05-07T09:47:38.393Z,13.20
2019-05-07T09:50:12.248Z,13.50
2019-05-07T09:52:45.895Z,13.70
2019-05-07T09:55:19.500Z,13.70
2019-05-07T09:57:53.151Z,13.60
2019-05-07T10:00:26.689Z,13.70
2019-05-07T10:03:00.707Z,14.00
2019-05-07T10:05:34.764Z,14.60
2019-05-07T10:08:08.971Z,15.60
2019-05-07T10:10:42.782Z,16.80
2019-05-07T10:13:17.345Z,18.80
2019-05-07T10:15:52.604Z,18.80
2019-05-07T10:18:24.616Z,19.00
2019-05-07T10:20:58.397Z,18.80
2019-05-07T10:23:31.995Z,18.00
2019-05-07T10:26:06.019Z,17.40
2019-05-07T10:28:39.644Z,16.70
2019-05-07T10:31:13.316Z,16.60
2019-05-07T10:33:46.919Z,16.10
2019-05-07T10:36:22.785Z,16.10
2019-05-07T10:38:55.617Z,16.20
2019-05-07T10:41:29.210Z,16.20
2019-05-07T10:44:02.976Z,15.90
2019-05-07T10:46:42.485Z,16.00
2019-05-07T10:49:16.112Z,15.20
2019-05-07T10:51:51.688Z,15.60
2019-05-07T10:54:23.595Z,16.00
2019-05-07T10:56:57.939Z,15.80
2019-05-07T10:59:31.535Z,15.80
2019-05-07T11:02:08.705Z,15.80
2019-05-07T11:04:45.423Z,15.30
2019-05-07T11:07:16.109Z,14.80
2019-05-07T11:09:52.369Z,15.50
2019-05-07T11:12:24.706Z,15.70
2019-05-07T11:14:58.323Z,15.60
2019-05-07T11:17:37.161Z,14.80
2019-05-07T11:20:12.154Z,14.80
2019-05-07T11:22:44.657Z,15.10
2019-05-07T11:25:19.032Z,15.70
2019-05-07T11:27:52.720Z,15.70
2019-05-07T11:30:27.164Z,15.20
2019-05-07T11:33:02.695Z,15.10
2019-05-07T11:35:35.160Z,15.70
2019-05-07T11:38:18.590Z,15.70
2019-05-07T11:40:43.287Z,16.40
2019-05-07T11:43:32.719Z,16.70
2019-05-07T11:46:09.568Z,16.70
2019-05-07T11:48:43.843Z,16.50
2019-05-07T11:51:27.551Z,16.80
2019-05-07T11:54:07.512Z,16.70
2019-05-07T11:56:42.228Z,16.80
2019-05-07T11:59:15.460Z,16.80
2019-05-07T12:01:49.034Z,16.80
2019-05-07T12:04:22.786Z,16.60
2019-05-07T12:06:56.349Z,16.50
2019-05-07T12:09:29.882Z,16.20
2019-05-07T12:12:03.699Z,16.10
2019-05-07T12:14:38.160Z,15.50
2019-05-07T12:17:12.048Z,15.50
2019-05-07T12:19:45.705Z,15.30
2019-05-07T12:22:34.104Z,15.60
2019-05-07T12:25:07.805Z,16.00
2019-05-07T12:27:42.164Z,15.80
2019-05-07T12:30:15.933Z,15.80
2019-05-07T12:32:55.310Z,15.60
2019-05-07T12:35:29.204Z,15.80
2019-05-07T12:38:02.910Z,16.20
2019-05-07T12:40:37.251Z,16.40
2019-05-07T12:43:16.612Z,16.40
2019-05-07T12:45:52.326Z,16.60
2019-05-07T12:48:24.125Z,16.60
2019-05-07T12:50:57.835Z,16.60
2019-05-07T12:53:37.348Z,16.50
2019-05-07T12:56:11.899Z,16.20
2019-05-07T12:58:46.454Z,16.30
2019-05-07T13:01:36.887Z,16.30
2019-05-07T13:04:11.255Z,16.20
2019-05-07T13:06:58.841Z,16.20
2019-05-07T13:09:32.858Z,16.30
2019-05-07T13:12:06.378Z,16.40
2019-05-07T13:14:40.236Z,16.50
2019-05-07T13:17:13.988Z,16.70
2019-05-07T13:19:47.634Z,16.80
2019-05-07T13:22:21.982Z,16.80
2019-05-07T13:24:54.907Z,16.80
2019-05-07T13:27:28.758Z,16.50
2019-05-07T13:30:02.729Z,16.40
2019-05-07T13:32:37.649Z,16.70
2019-05-07T13:35:11.860Z,16.70
2019-05-07T13:38:05.170Z,17.00
2019-05-07T13:40:52.762Z,16.90
2019-05-07T13:43:29.940Z,16.80
2019-05-07T13:46:05.755Z,16.70
2019-05-07T13:48:42.237Z,16.40
2019-05-07T13:51:13.844Z,16.40
2019-05-07T13:53:48.476Z,16.70
2019-05-07T13:56:22.278Z,16.70
2019-05-07T13:58:56.002Z,16.80
2019-05-07T14:01:35.415Z,16.80
2019-05-07T14:04:09.355Z,16.90
2019-05-07T14:06:43.697Z,16.50
2019-05-07T14:09:23.959Z,16.40
2019-05-07T14:11:54.580Z,16.40
2019-05-07T14:14:29.185Z,16.60
2019-05-07T14:17:03.421Z,16.80
2019-05-07T14:19:37.951Z,16.70
2019-05-07T14:22:16.376Z,16.60
2019-05-07T14:24:46.270Z,16.60
2019-05-07T14:27:20.029Z,16.60
2019-05-07T14:29:53.913Z,16.60
2019-05-07T14:32:28.799Z,16.40
2019-05-07T14:35:22.697Z,16.50
2019-05-07T14:37:58.904Z,16.40
2019-05-07T14:40:32.621Z,16.40
2019-05-07T14:43:09.839Z,16.60
2019-05-07T14:45:43.571Z,16.50
2019-05-07T14:48:17.378Z,16.60
2019-05-07T14:50:53.050Z,16.30
2019-05-07T14:53:24.547Z,16.00
2019-05-07T14:55:59.851Z,16.20
2019-05-07T14:58:34.220Z,16.50
2019-05-07T15:01:08.031Z,16.50
2019-05-07T15:03:42.557Z,16.70
2019-05-07T15:06:16.348Z,16.70
2019-05-07T15:08:52.088Z,16.70
2019-05-07T15:11:28.715Z,16.40
2019-05-07T15:14:11.873Z,16.50
2019-05-07T15:16:48.578Z,16.50
2019-05-07T15:19:29.347Z,16.30
2019-05-07T15:25:02.765Z,16.40
2019-05-07T15:27:34.633Z,16.50
2019-05-07T15:30:08.503Z,16.60
2019-05-07T15:32:42.788Z,16.80
2019-05-07T15:35:15.802Z,16.90
2019-05-07T15:37:51.696Z,16.80
2019-05-07T15:40:23.452Z,16.60
2019-05-07T15:42:57.150Z,16.60
2019-05-07T15:45:30.939Z,16.70
2019-05-07T15:48:05.328Z,16.70
2019-05-07T15:50:38.873Z,16.60
2019-05-07T15:53:18.160Z,16.70
2019-05-07T15:55:52.268Z,16.50
2019-05-07T15:58:25.400Z,16.50
2019-05-07T16:00:59.204Z,16.40
2019-05-07T16:03:35.631Z,16.30
2019-05-07T16:06:09.288Z,16.30
2019-05-07T16:08:56.515Z,15.90
2019-05-07T16:11:32.313Z,15.90
2019-05-07T16:14:06.572Z,15.90
2019-05-07T16:16:42.776Z,15.90
2019-05-07T16:19:26.167Z,16.00
2019-05-07T16:22:03.568Z,16.00
2019-05-07T16:24:33.521Z,15.90
2019-05-07T16:27:07.353Z,15.90
2019-05-07T16:29:42.173Z,16.00
2019-05-07T16:32:15.476Z,16.00
2019-05-07T16:34:50.049Z,16.00
2019-05-07T16:37:24.372Z,16.00
2019-05-07T16:39:58.008Z,16.00
2019-05-07T16:42:32.197Z,15.90
2019-05-07T16:45:06.643Z,15.90
2019-05-07T16:47:40.919Z,15.90
2019-05-07T16:50:14.466Z,15.90
2019-05-07T16:52:48.097Z,15.80
2019-05-07T16:55:22.572Z,15.70
2019-05-07T16:57:57.792Z,15.70
2019-05-07T17:00:32.051Z,15.80
2019-05-07T17:03:05.851Z,15.90
2019-05-07T17:05:39.528Z,15.90
2019-05-07T17:08:23.231Z,15.80
2019-05-07T17:10:56.840Z,15.90
2019-05-07T17:13:31.965Z,15.80
2019-05-07T17:16:05.937Z,15.80
2019-05-07T17:18:39.721Z,15.80
2019-05-07T17:21:13.406Z,15.90
2019-05-07T17:23:47.194Z,15.90
2019-05-07T17:26:23.025Z,15.90
2019-05-07T17:28:54.539Z,15.80
2019-05-07T17:31:29.166Z,15.70
2019-05-07T17:34:03.631Z,15.70
2019-05-07T17:36:37.239Z,15.70
2019-05-07T17:39:12.226Z,15.60
2019-05-07T17:41:45.380Z,15.60
2019-05-07T17:44:19.220Z,15.40
2019-05-07T17:46:52.929Z,15.40
2019-05-07T17:49:26.701Z,15.30
2019-05-07T17:52:00.328Z,15.30
2019-05-07T17:54:33.909Z,15.20
2019-05-07T17:57:07.604Z,15.10
2019-05-07T17:59:42.176Z,15.10
2019-05-07T18:02:18.563Z,15.00
2019-05-07T18:04:54.670Z,14.80
2019-05-07T18:07:26.107Z,14.70
2019-05-07T18:10:02.251Z,14.70
2019-05-07T18:12:33.606Z,14.60
2019-05-07T18:15:07.203Z,14.50
2019-05-07T18:17:56.588Z,14.40
2019-05-07T18:20:30.206Z,14.50
2019-05-07T18:23:03.883Z,14.40
2019-05-07T18:25:37.526Z,14.40
2019-05-07T18:28:12.275Z,14.40
2019-05-07T18:30:44.815Z,14.40
2019-05-07T18:33:19.450Z,14.20
2019-05-07T18:35:53.135Z,14.20
2019-05-07T18:38:26.912Z,14.10
2019-05-07T18:41:02.726Z,14.10
2019-05-07T18:43:34.340Z,14.10
2019-05-07T18:46:07.908Z,14.00
2019-05-07T18:48:42.799Z,13.90
2019-05-07T18:51:16.200Z,13.90
2019-05-07T18:53:51.921Z,13.70
2019-05-07T18:56:24.319Z,13.70
2019-05-07T18:58:57.822Z,13.70
2019-05-07T19:01:32.713Z,13.70
2019-05-07T19:04:05.149Z,13.70
2019-05-07T19:06:38.737Z,13.60
2019-05-07T19:09:12.349Z,13.50
2019-05-07T19:11:45.942Z,13.40
2019-05-07T19:14:19.754Z,13.40
2019-05-07T19:16:53.271Z,13.20
2019-05-07T19:19:27.944Z,12.80
2019-05-07T19:22:02.181Z,12.70
2019-05-07T19:24:44.222Z,12.70
2019-05-07T19:27:09.631Z,12.50
2019-05-07T19:29:45.655Z,12.50
2019-05-07T19:32:17.070Z,12.50
2019-05-07T19:34:50.896Z,12.30
2019-05-07T19:37:24.660Z,12.20
2019-05-07T19:39:58.986Z,12.20
2019-05-07T19:42:32.550Z,12.20
2019-05-07T19:45:06.207Z,12.20
2019-05-07T19:47:39.796Z,12.10
2019-05-07T19:50:13.405Z,12.10
2019-05-07T19:52:46.995Z,12.10
2019-05-07T19:55:21.985Z,12.00
2019-05-07T19:58:05.072Z,12.00
2019-05-07T20:00:38.682Z,12.00
2019-05-07T20:03:13.120Z,12.10
2019-05-07T20:05:46.272Z,12.00
2019-05-07T20:08:19.989Z,11.90
2019-05-07T20:10:56.558Z,12.00
2019-05-07T20:13:32.364Z,11.80
2019-05-07T20:16:19.235Z,11.80
2019-05-07T20:18:53.014Z,11.70
2019-05-07T20:21:26.587Z,11.60
2019-05-07T20:24:01.883Z,11.60
2019-05-07T20:26:33.931Z,11.60
2019-05-07T20:29:08.836Z,11.60
2019-05-07T20:31:42.569Z,11.60
2019-05-07T20:34:16.342Z,11.60
2019-05-07T20:36:51.778Z,11.60
2019-05-07T20:39:23.665Z,11.60
2019-05-07T20:41:57.988Z,11.60
2019-05-07T20:44:32.413Z,11.50
2019-05-07T20:47:05.487Z,11.60
2019-05-07T20:49:39.169Z,11.50
2019-05-07T20:52:13.713Z,11.50
2019-05-07T20:54:49.379Z,11.50
2019-05-07T20:57:24.992Z,11.50
2019-05-07T20:59:58.608Z,11.50
2019-05-07T21:02:44.364Z,11.40
2019-05-07T21:05:06.549Z,11.40
2019-05-07T21:07:42.395Z,11.30
2019-05-07T21:10:14.799Z,11.30
2019-05-07T21:12:48.455Z,11.30
2019-05-07T21:15:22.836Z,11.30
2019-05-07T21:17:56.596Z,11.30
2019-05-07T21:20:32.276Z,11.20
2019-05-07T21:23:04.846Z,11.20
2019-05-07T21:25:45.525Z,11.20
2019-05-07T21:28:12.417Z,11.10
2019-05-07T21:30:46.854Z,11.10
2019-05-07T21:33:22.637Z,11.10
2019-05-07T21:35:54.247Z,11.20
2019-05-07T21:38:27.856Z,11.20
2019-05-07T21:41:01.534Z,11.20
2019-05-07T21:43:36.298Z,11.30
2019-05-07T21:46:09.999Z,11.30
2019-05-07T21:48:43.596Z,11.40
2019-05-07T21:51:18.061Z,11.40
2019-05-07T21:53:53.709Z,11.40
2019-05-07T21:56:36.282Z,11.40
2019-05-07T21:59:12.703Z,11.30
2019-05-07T22:01:48.914Z,11.10
2019-05-07T22:04:22.543Z,11.10
2019-05-07T22:06:56.174Z,11.10
2019-05-07T22:09:29.802Z,11.20
2019-05-07T22:12:03.816Z,11.20
2019-05-07T22:14:36.920Z,11.30
2019-05-07T22:17:12.580Z,11.30
2019-05-07T22:19:44.335Z,11.40
2019-05-07T22:22:17.897Z,11.40
2019-05-07T22:24:53.143Z,11.40
2019-05-07T22:27:25.190Z,11.40
2019-05-07T22:29:58.957Z,11.30
2019-05-07T22:45:55.418Z,11.10
2019-05-07T22:48:29.851Z,11.10
2019-05-07T22:51:03.595Z,11.10
2019-05-07T22:53:37.369Z,11.20
2019-05-07T22:56:12.050Z,11.20
2019-05-07T22:58:46.256Z,11.20
2019-05-07T23:01:19.910Z,11.20
2019-05-07T23:03:54.060Z,11.30
2019-05-07T23:06:28.054Z,11.20
2019-05-07T23:09:02.054Z,11.20
2019-05-07T23:11:36.344Z,11.20
2019-05-07T23:14:11.856Z,11.20
2019-05-07T23:16:43.806Z,11.20
2019-05-07T23:19:17.378Z,11.20
2019-05-07T23:21:52.114Z,11.20
2019-05-07T23:24:25.488Z,11.20
2019-05-07T23:26:59.908Z,11.20
2019-05-07T23:29:33.661Z,11.20
2019-05-07T23:32:07.324Z,11.20
2019-05-07T23:34:41.052Z,11.10
2019-05-07T23:37:14.779Z,11.10
2019-05-07T23:39:52.564Z,10.90
2019-05-07T23:42:26.935Z,10.90
2019-05-07T23:45:01.910Z,10.90
2019-05-07T23:47:34.434Z,10.80
2019-05-07T23:50:08.091Z,10.80
2019-05-07T23:52:43.955Z,10.80
2019-05-07T23:55:16.262Z,10.90
2019-05-07T23:57:52.458Z,10.90
